ADDS METAR Data INFO
IDs: Format: Raw Decoded Include TAF

Data at: 1542 UTC 12 Dec 2017

KPHD 121453Z AUTO 32016G23KT 9SM FEW025 SCT042 OVC060 M02/M08 A2977 RMK AO2 SNB1358E48 SLP089 P0000 60000 T10221078 53025 $
KPHD 121439Z AUTO 31014G25KT 6SM -SN FEW020 BKN035 OVC048 M02/M06 A2977 RMK AO2 SNB1358 P0000 T10221061 $
KPHD 121415Z AUTO 31013G21KT 3SM -SN BKN027 BKN047 OVC070 M02/M06 A2975 RMK AO2 SNB1358 P0000 T10221056 $
KPHD 121404Z AUTO 31013G24KT 1 3/4SM -SN BKN025 BKN042 OVC070 M02/M05 A2974 RMK AO2 SNB1358 P0000 T10171050 $
KPHD 121353Z AUTO 30016G22KT 10SM SCT021 BKN049 OVC075 M01/M05 A2974 RMK AO2 SNE05 SLP078 P0000 T10111050 $
KPHD 121346Z AUTO 31015G22KT 10SM FEW019 BKN049 OVC080 M01/M05 A2973 RMK AO2 SNE05 P0000 T10111050 $
KPHD 121253Z AUTO 30018G26KT 4SM -SN SCT016 OVC028 M01/M03 A2972 RMK AO2 PK WND 30026/1252 SLP071 P0000 T10061033 $
KPHD 121221Z AUTO 29011G18KT 3SM -SN BR BKN016 BKN039 OVC048 00/M02 A2970 RMK AO2 P0000 T00001022 $
KPHD 121205Z AUTO 30013KT 4SM -SN BR SCT017 BKN042 OVC049 00/M02 A2970 RMK AO2 P0000 T00001022 $
KPHD 121153Z AUTO 29010G18KT 4SM -SN BR FEW011 BKN021 OVC041 00/M02 A2969 RMK AO2 SLP063 P0000 60001 70001 T00001022 10039 20000 53019 $
KPHD 121101Z AUTO 29010KT 4SM -SN BR OVC013 01/M02 A2967 RMK AO2 P0000 T00061017 $
KPHD 121053Z AUTO 29007KT 4SM -SN BR OVC015 01/M02 A2966 RMK AO2 SLP053 P0001 T00061017 $
KPHD 120953Z AUTO 29008G15KT 6SM -SN BR FEW012 BKN018 OVC024 01/M01 A2963 RMK AO2 SNB41 SLP042 P0000 T00111006 $
KPHD 120951Z AUTO 29009G15KT 6SM -SN BR SCT012 BKN018 OVC024 01/M01 A2964 RMK AO2 SNB41 P0000 $
KPHD 120903Z AUTO 27005KT 7SM BKN013 BKN027 OVC041 01/00 A2962 RMK AO2 T00110000 $
KPHD 120853Z AUTO 27005KT 6SM BR SCT013 BKN027 OVC039 01/00 A2962 RMK AO2 SNE26 SLP036 P0000 60000 T00110000 52001 $
KPHD 120850Z AUTO 27004KT 7SM SCT012 BKN019 OVC039 01/00 A2962 RMK AO2 SNE26 P0000 $
KPHD 120818Z AUTO 26007KT 5SM -SN BR BKN010 BKN015 OVC020 01/00 A2962 RMK AO2 P0000 T00110000 $
KPHD 120802Z AUTO 26005KT 3SM -SN BR SCT010 OVC016 01/M01 A2961 RMK AO2 P0000 T00111006 $
KPHD 120753Z AUTO 27006G16KT 3SM -SN BR SCT010 BKN014 OVC036 01/M01 A2961 RMK AO2 SNB38 SLP034 P0000 T00111006 $
KPHD 120749Z AUTO 27009G24KT 4SM -SN FEW011 BKN018 OVC036 02/M01 A2961 RMK AO2 SNB38 P0000 $
KPHD 120653Z AUTO VRB06KT 10SM OVC060 03/M03 A2959 RMK AO2 SLP025 T00331033 $
KPHD 120553Z AUTO 13006KT 10SM BKN080 01/M04 A2959 RMK AO2 SLP027 T00061044 10011 21011 56035 $
KPHD 120453Z AUTO 11003KT 10SM OVC070 01/M04 A2963 RMK AO2 SLP040 T00061044 400281011 $
KPHD 120353Z AUTO 00000KT 10SM BKN075 00/M05 A2965 RMK AO2 SLP049 T00001050 $
KPHD 120253Z AUTO 13004KT 10SM CLR M01/M05 A2969 RMK AO2 SLP064 T10061050 58033 $
KPHD 120153Z AUTO 15004KT 10SM FEW110 01/M05 A2974 RMK AO2 SLP079 T00061050 $
KPHD 120053Z AUTO 00000KT 10SM CLR 01/M05 A2978 RMK AO2 SLP091 T00111050 $
KPHD 112353Z AUTO 14003KT 10SM CLR 01/M05 A2979 RMK AO2 SLP097 T00111050 10028 20006 58028 $
KPHD 112253Z AUTO 14004KT 10SM BKN050 BKN120 02/M05 A2982 RMK AO2 SLP106 T00171050 $
KPHD 112153Z AUTO 20004KT 10SM BKN060 OVC110 02/M06 A2987 RMK AO2 SLP122 T00221061 $
KPHD 112053Z AUTO 17005KT 10SM OVC060 02/M06 A2988 RMK AO2 SLP126 T00221061 56031 $
KPHD 111953Z AUTO 17004KT 10SM BKN060 OVC100 02/M06 A2990 RMK AO2 SLP134 T00171061 $
KPHD 111853Z AUTO 21008KT 10SM OVC075 01/M06 A2993 RMK AO2 SLP144 T00111061 $
KPHD 111753Z AUTO 19006KT 10SM FEW029 BKN060 OVC100 01/M06 A2997 RMK AO2 SLP157 T00061061 10006 21011 58028 $
KPHD 111653Z AUTO VRB05KT 10SM FEW032 BKN095 01/M07 A3001 RMK AO2 SLP172 T00061072 $
KPHD 111615Z AUTO 23008KT 10SM SCT028 BKN110 00/M08 A3004 RMK AO2 T00001078 $
KPHD 111553Z AUTO 23008KT 10SM OVC026 M01/M07 A3005 RMK AO2 SLP184 T10061067 $
KPHD 111453Z AUTO 27007KT 10SM OVC028 M01/M07 A3006 RMK AO2 SLP188 T10061072 56004 $
KPHD 111353Z AUTO 20003KT 10SM OVC028 M01/M06 A3006 RMK AO2 SLP187 T10111061 $
KPHD 111312Z AUTO 00000KT 10SM OVC028 M01/M06 A3006 RMK AO2 T10111056 $
KPHD 111253Z AUTO 00000KT 10SM OVC031 M01/M06 A3006 RMK AO2 SLP188 T10111061 $
KPHD 111153Z AUTO 32003KT 10SM OVC031 M01/M07 A3007 RMK AO2 SLP192 T10111067 10000 21011 51014 $
KPHD 111053Z AUTO 28005KT 10SM OVC032 M01/M07 A3006 RMK AO2 SLP188 T10111067 $
KPHD 110953Z AUTO 29007KT 10SM OVC031 M01/M07 A3004 RMK AO2 SLP184 T10061067 $
KPHD 110853Z AUTO 28006KT 10SM OVC031 M01/M06 A3003 RMK AO2 SLP177 T10061061 51016 $
KPHD 110753Z AUTO 27004KT 10SM OVC034 00/M06 A3002 RMK AO2 SLP174 T00001061 $
KPHD 110653Z AUTO 26007KT 10SM OVC038 00/M07 A3000 RMK AO2 SLP168 T00001067 $
KPHD 110553Z AUTO 24005KT 10SM OVC038 M01/M07 A2998 RMK AO2 SLP161 T10061072 10000 21006 56004 $
KPHD 110453Z AUTO 21004KT 10SM OVC040 M01/M07 A2998 RMK AO2 SLP161 T10061072 410061033 $
KPHD 110353Z AUTO 22006KT 10SM OVC041 M01/M07 A2998 RMK AO2 SLP163 T10061072 $